sensor_id;sensor_type;location;lat;lon;timestamp;P1;durP1;ratioP1;P2;durP2;ratioP2
35612;SDS011;22054;51.646;7.078;2023-05-08T00:02:12;5.60;;;5.40;;
35612;SDS011;22054;51.646;7.078;2023-05-08T00:05:36;5.55;;;5.35;;
35612;SDS011;22054;51.646;7.078;2023-05-08T00:09:03;5.20;;;5.00;;
35612;SDS011;22054;51.646;7.078;2023-05-08T00:12:28;5.20;;;5.00;;
35612;SDS011;22054;51.646;7.078;2023-05-08T00:15:52;5.47;;;5.28;;
35612;SDS011;22054;51.646;7.078;2023-05-08T00:19:16;5.40;;;5.20;;
35612;SDS011;22054;51.646;7.078;2023-05-08T00:22:41;5.30;;;5.10;;
35612;SDS011;22054;51.646;7.078;2023-05-08T00:26:05;5.60;;;5.40;;
35612;SDS011;22054;51.646;7.078;2023-05-08T00:29:29;5.20;;;5.00;;
35612;SDS011;22054;51.646;7.078;2023-05-08T00:32:53;5.20;;;5.00;;
35612;SDS011;22054;51.646;7.078;2023-05-08T00:36:17;5.20;;;5.00;;
35612;SDS011;22054;51.646;7.078;2023-05-08T00:39:42;4.90;;;4.70;;
35612;SDS011;22054;51.646;7.078;2023-05-08T00:43:06;5.18;;;4.97;;
35612;SDS011;22054;51.646;7.078;2023-05-08T00:46:31;5.07;;;4.88;;
35612;SDS011;22054;51.646;7.078;2023-05-08T00:49:56;5.15;;;4.95;;
35612;SDS011;22054;51.646;7.078;2023-05-08T00:53:23;5.28;;;5.07;;
35612;SDS011;22054;51.646;7.078;2023-05-08T00:56:50;5.30;;;5.10;;
35612;SDS011;22054;51.646;7.078;2023-05-08T01:00:15;5.50;;;5.30;;
35612;SDS011;22054;51.646;7.078;2023-05-08T01:03:41;5.28;;;5.07;;
35612;SDS011;22054;51.646;7.078;2023-05-08T01:07:08;5.30;;;5.10;;
35612;SDS011;22054;51.646;7.078;2023-05-08T01:10:41;5.28;;;5.07;;
35612;SDS011;22054;51.646;7.078;2023-05-08T01:33:46;5.15;;;4.95;;
35612;SDS011;22054;51.646;7.078;2023-05-08T01:37:25;5.10;;;4.90;;
35612;SDS011;22054;51.646;7.078;2023-05-08T01:41:07;5.30;;;5.10;;
35612;SDS011;22054;51.646;7.078;2023-05-08T01:44:42;5.13;;;4.93;;
35612;SDS011;22054;51.646;7.078;2023-05-08T01:48:12;5.20;;;5.00;;
35612;SDS011;22054;51.646;7.078;2023-05-08T01:52:04;5.10;;;4.90;;
35612;SDS011;22054;51.646;7.078;2023-05-08T01:55:49;5.00;;;4.80;;
35612;SDS011;22054;51.646;7.078;2023-05-08T01:59:18;4.80;;;4.60;;
35612;SDS011;22054;51.646;7.078;2023-05-08T02:02:45;4.80;;;4.60;;
35612;SDS011;22054;51.646;7.078;2023-05-08T02:06:12;5.05;;;4.85;;
35612;SDS011;22054;51.646;7.078;2023-05-08T02:09:40;4.80;;;4.60;;
35612;SDS011;22054;51.646;7.078;2023-05-08T02:13:07;5.00;;;4.80;;
35612;SDS011;22054;51.646;7.078;2023-05-08T02:16:33;5.07;;;4.88;;
35612;SDS011;22054;51.646;7.078;2023-05-08T02:20:00;5.20;;;5.00;;
35612;SDS011;22054;51.646;7.078;2023-05-08T02:23:27;5.00;;;4.80;;
35612;SDS011;22054;51.646;7.078;2023-05-08T02:26:51;5.30;;;5.10;;
35612;SDS011;22054;51.646;7.078;2023-05-08T02:30:17;5.25;;;5.05;;
35612;SDS011;22054;51.646;7.078;2023-05-08T02:33:42;5.25;;;5.05;;
35612;SDS011;22054;51.646;7.078;2023-05-08T02:37:08;5.18;;;4.97;;
35612;SDS011;22054;51.646;7.078;2023-05-08T02:40:35;5.13;;;4.93;;
35612;SDS011;22054;51.646;7.078;2023-05-08T02:44:02;5.30;;;5.10;;
35612;SDS011;22054;51.646;7.078;2023-05-08T02:47:28;5.30;;;5.10;;
35612;SDS011;22054;51.646;7.078;2023-05-08T02:51:46;5.20;;;5.00;;
35612;SDS011;22054;51.646;7.078;2023-05-08T02:55:21;5.20;;;5.00;;
35612;SDS011;22054;51.646;7.078;2023-05-08T02:59:30;5.72;;;5.53;;
35612;SDS011;22054;51.646;7.078;2023-05-08T03:06:36;5.70;;;5.50;;
35612;SDS011;22054;51.646;7.078;2023-05-08T03:10:04;5.60;;;5.40;;
35612;SDS011;22054;51.646;7.078;2023-05-08T03:13:33;5.47;;;5.28;;
35612;SDS011;22054;51.646;7.078;2023-05-08T03:17:00;5.60;;;5.40;;
35612;SDS011;22054;51.646;7.078;2023-05-08T03:20:34;5.30;;;5.10;;
35612;SDS011;22054;51.646;7.078;2023-05-08T03:24:02;5.60;;;5.40;;
35612;SDS011;22054;51.646;7.078;2023-05-08T03:27:28;5.60;;;5.40;;
35612;SDS011;22054;51.646;7.078;2023-05-08T03:30:54;5.38;;;5.18;;
35612;SDS011;22054;51.646;7.078;2023-05-08T03:34:20;5.50;;;5.30;;
35612;SDS011;22054;51.646;7.078;2023-05-08T03:37:47;5.80;;;5.60;;
35612;SDS011;22054;51.646;7.078;2023-05-08T03:41:11;5.70;;;5.50;;
35612;SDS011;22054;51.646;7.078;2023-05-08T03:44:45;5.47;;;5.28;;
35612;SDS011;22054;51.646;7.078;2023-05-08T03:48:13;6.00;;;5.80;;
35612;SDS011;22054;51.646;7.078;2023-05-08T03:51:37;5.50;;;5.30;;
35612;SDS011;22054;51.646;7.078;2023-05-08T03:55:02;5.18;;;4.97;;
35612;SDS011;22054;51.646;7.078;2023-05-08T04:06:02;5.22;;;5.03;;
35612;SDS011;22054;51.646;7.078;2023-05-08T04:13:53;5.10;;;4.90;;
35612;SDS011;22054;51.646;7.078;2023-05-08T04:17:35;5.30;;;5.10;;
35612;SDS011;22054;51.646;7.078;2023-05-08T04:21:09;5.30;;;5.10;;
35612;SDS011;22054;51.646;7.078;2023-05-08T04:24:38;5.35;;;5.15;;
35612;SDS011;22054;51.646;7.078;2023-05-08T04:28:05;5.15;;;4.95;;
35612;SDS011;22054;51.646;7.078;2023-05-08T04:31:31;5.13;;;4.93;;
35612;SDS011;22054;51.646;7.078;2023-05-08T04:34:58;4.88;;;4.68;;
35612;SDS011;22054;51.646;7.078;2023-05-08T04:38:25;5.00;;;4.80;;
35612;SDS011;22054;51.646;7.078;2023-05-08T04:41:49;5.22;;;5.03;;
35612;SDS011;22054;51.646;7.078;2023-05-08T04:45:13;5.10;;;4.90;;
35612;SDS011;22054;51.646;7.078;2023-05-08T04:48:37;5.00;;;4.80;;
35612;SDS011;22054;51.646;7.078;2023-05-08T04:52:02;5.00;;;4.80;;
35612;SDS011;22054;51.646;7.078;2023-05-08T04:55:26;5.30;;;5.10;;
35612;SDS011;22054;51.646;7.078;2023-05-08T04:58:50;5.43;;;5.22;;
35612;SDS011;22054;51.646;7.078;2023-05-08T05:02:15;5.18;;;4.97;;
35612;SDS011;22054;51.646;7.078;2023-05-08T05:05:39;5.07;;;4.88;;
35612;SDS011;22054;51.646;7.078;2023-05-08T05:09:03;4.60;;;4.40;;
35612;SDS011;22054;51.646;7.078;2023-05-08T05:12:28;4.70;;;4.50;;
35612;SDS011;22054;51.646;7.078;2023-05-08T05:15:52;4.80;;;4.60;;
35612;SDS011;22054;51.646;7.078;2023-05-08T05:19:16;4.85;;;4.65;;
35612;SDS011;22054;51.646;7.078;2023-05-08T05:22:40;4.70;;;4.50;;
35612;SDS011;22054;51.646;7.078;2023-05-08T05:26:05;4.85;;;4.65;;
35612;SDS011;22054;51.646;7.078;2023-05-08T05:29:29;4.88;;;4.68;;
35612;SDS011;22054;51.646;7.078;2023-05-08T05:32:53;5.00;;;4.80;;
35612;SDS011;22054;51.646;7.078;2023-05-08T05:36:18;4.90;;;4.70;;
35612;SDS011;22054;51.646;7.078;2023-05-08T05:39:42;4.70;;;4.50;;
35612;SDS011;22054;51.646;7.078;2023-05-08T05:43:06;4.40;;;4.20;;
35612;SDS011;22054;51.646;7.078;2023-05-08T05:46:30;5.03;;;4.82;;
35612;SDS011;22054;51.646;7.078;2023-05-08T05:49:55;5.10;;;4.90;;
35612;SDS011;22054;51.646;7.078;2023-05-08T05:53:20;5.18;;;4.97;;
35612;SDS011;22054;51.646;7.078;2023-05-08T05:56:44;5.45;;;5.25;;
35612;SDS011;22054;51.646;7.078;2023-05-08T06:00:08;5.50;;;5.30;;
35612;SDS011;22054;51.646;7.078;2023-05-08T06:03:33;5.35;;;5.15;;
35612;SDS011;22054;51.646;7.078;2023-05-08T06:06:58;5.45;;;5.25;;
35612;SDS011;22054;51.646;7.078;2023-05-08T06:10:23;5.50;;;5.30;;
35612;SDS011;22054;51.646;7.078;2023-05-08T06:13:47;5.20;;;5.00;;
35612;SDS011;22054;51.646;7.078;2023-05-08T06:17:12;5.90;;;5.70;;
35612;SDS011;22054;51.646;7.078;2023-05-08T06:20:36;5.30;;;5.10;;
35612;SDS011;22054;51.646;7.078;2023-05-08T06:24:01;5.00;;;4.80;;
35612;SDS011;22054;51.646;7.078;2023-05-08T06:27:25;5.50;;;5.30;;
35612;SDS011;22054;51.646;7.078;2023-05-08T06:30:50;4.90;;;4.70;;
35612;SDS011;22054;51.646;7.078;2023-05-08T06:34:15;5.00;;;4.80;;
35612;SDS011;22054;51.646;7.078;2023-05-08T06:37:43;5.40;;;5.20;;
35612;SDS011;22054;51.646;7.078;2023-05-08T06:41:08;5.28;;;5.07;;
35612;SDS011;22054;51.646;7.078;2023-05-08T06:44:32;5.40;;;5.20;;
35612;SDS011;22054;51.646;7.078;2023-05-08T06:47:57;5.13;;;4.93;;
35612;SDS011;22054;51.646;7.078;2023-05-08T06:51:21;4.90;;;4.70;;
35612;SDS011;22054;51.646;7.078;2023-05-08T06:54:46;4.95;;;4.75;;
35612;SDS011;22054;51.646;7.078;2023-05-08T06:58:10;5.00;;;4.80;;
35612;SDS011;22054;51.646;7.078;2023-05-08T07:01:36;4.30;;;4.10;;
35612;SDS011;22054;51.646;7.078;2023-05-08T07:05:00;4.22;;;4.03;;
35612;SDS011;22054;51.646;7.078;2023-05-08T07:08:27;4.53;;;4.32;;
35612;SDS011;22054;51.646;7.078;2023-05-08T07:11:51;4.43;;;4.22;;
35612;SDS011;22054;51.646;7.078;2023-05-08T07:15:15;4.55;;;4.35;;
35612;SDS011;22054;51.646;7.078;2023-05-08T07:18:40;4.50;;;4.30;;
35612;SDS011;22054;51.646;7.078;2023-05-08T07:22:05;5.40;;;5.20;;
35612;SDS011;22054;51.646;7.078;2023-05-08T07:25:31;5.32;;;5.13;;
35612;SDS011;22054;51.646;7.078;2023-05-08T07:28:55;5.20;;;5.00;;
35612;SDS011;22054;51.646;7.078;2023-05-08T07:32:21;5.90;;;5.70;;
35612;SDS011;22054;51.646;7.078;2023-05-08T07:35:45;5.40;;;5.20;;
35612;SDS011;22054;51.646;7.078;2023-05-08T07:39:10;5.78;;;5.57;;
35612;SDS011;22054;51.646;7.078;2023-05-08T07:42:40;5.72;;;5.53;;
35612;SDS011;22054;51.646;7.078;2023-05-08T07:46:07;6.10;;;5.90;;
35612;SDS011;22054;51.646;7.078;2023-05-08T07:49:31;5.97;;;5.78;;
35612;SDS011;22054;51.646;7.078;2023-05-08T07:52:56;5.57;;;5.38;;
35612;SDS011;22054;51.646;7.078;2023-05-08T07:56:20;5.35;;;5.15;;
35612;SDS011;22054;51.646;7.078;2023-05-08T07:59:44;5.60;;;5.40;;
35612;SDS011;22054;51.646;7.078;2023-05-08T08:03:09;5.70;;;5.50;;
35612;SDS011;22054;51.646;7.078;2023-05-08T08:06:33;5.90;;;5.70;;
35612;SDS011;22054;51.646;7.078;2023-05-08T08:09:58;5.82;;;5.63;;
35612;SDS011;22054;51.646;7.078;2023-05-08T08:13:22;5.88;;;5.68;;
35612;SDS011;22054;51.646;7.078;2023-05-08T08:16:47;5.82;;;5.63;;
35612;SDS011;22054;51.646;7.078;2023-05-08T08:20:11;6.00;;;5.80;;
35612;SDS011;22054;51.646;7.078;2023-05-08T08:23:35;6.03;;;5.82;;
35612;SDS011;22054;51.646;7.078;2023-05-08T08:27:00;6.13;;;5.93;;
35612;SDS011;22054;51.646;7.078;2023-05-08T08:30:24;5.90;;;5.70;;
35612;SDS011;22054;51.646;7.078;2023-05-08T08:33:48;6.13;;;5.93;;
35612;SDS011;22054;51.646;7.078;2023-05-08T08:37:12;6.63;;;6.32;;
35612;SDS011;22054;51.646;7.078;2023-05-08T08:40:37;6.82;;;6.53;;
35612;SDS011;22054;51.646;7.078;2023-05-08T08:44:05;6.40;;;6.20;;
35612;SDS011;22054;51.646;7.078;2023-05-08T08:47:33;6.75;;;6.45;;
35612;SDS011;22054;51.646;7.078;2023-05-08T08:51:00;6.43;;;6.22;;
35612;SDS011;22054;51.646;7.078;2023-05-08T08:54:32;5.90;;;5.70;;
35612;SDS011;22054;51.646;7.078;2023-05-08T09:01:23;6.13;;;5.93;;
35612;SDS011;22054;51.646;7.078;2023-05-08T09:04:49;6.60;;;6.30;;
35612;SDS011;22054;51.646;7.078;2023-05-08T09:08:13;6.80;;;6.50;;
35612;SDS011;22054;51.646;7.078;2023-05-08T09:11:38;7.00;;;6.70;;
35612;SDS011;22054;51.646;7.078;2023-05-08T09:15:05;7.20;;;6.90;;
35612;SDS011;22054;51.646;7.078;2023-05-08T09:18:29;7.00;;;6.70;;
35612;SDS011;22054;51.646;7.078;2023-05-08T09:21:54;6.80;;;6.50;;
35612;SDS011;22054;51.646;7.078;2023-05-08T09:29:11;5.75;;;5.55;;
35612;SDS011;22054;51.646;7.078;2023-05-08T09:32:43;7.90;;;7.60;;
35612;SDS011;22054;51.646;7.078;2023-05-08T09:36:23;7.50;;;7.20;;
35612;SDS011;22054;51.646;7.078;2023-05-08T09:39:48;7.30;;;7.00;;
35612;SDS011;22054;51.646;7.078;2023-05-08T09:43:15;7.60;;;7.30;;
35612;SDS011;22054;51.646;7.078;2023-05-08T09:46:40;6.88;;;6.57;;
35612;SDS011;22054;51.646;7.078;2023-05-08T09:50:11;7.47;;;7.18;;
35612;SDS011;22054;51.646;7.078;2023-05-08T09:53:35;7.30;;;7.00;;
35612;SDS011;22054;51.646;7.078;2023-05-08T09:57:00;6.80;;;6.50;;
35612;SDS011;22054;51.646;7.078;2023-05-08T10:00:34;6.80;;;6.50;;
35612;SDS011;22054;51.646;7.078;2023-05-08T10:04:03;6.68;;;6.38;;
35612;SDS011;22054;51.646;7.078;2023-05-08T10:07:30;6.70;;;6.40;;
35612;SDS011;22054;51.646;7.078;2023-05-08T10:11:02;6.10;;;5.90;;
35612;SDS011;22054;51.646;7.078;2023-05-08T10:14:39;6.80;;;6.50;;
35612;SDS011;22054;51.646;7.078;2023-05-08T10:18:06;6.75;;;6.45;;
35612;SDS011;22054;51.646;7.078;2023-05-08T10:21:34;6.80;;;6.50;;
35612;SDS011;22054;51.646;7.078;2023-05-08T10:25:00;7.00;;;6.70;;
35612;SDS011;22054;51.646;7.078;2023-05-08T10:28:32;7.10;;;6.80;;
35612;SDS011;22054;51.646;7.078;2023-05-08T10:32:11;7.30;;;7.00;;
35612;SDS011;22054;51.646;7.078;2023-05-08T10:35:39;7.10;;;6.80;;
35612;SDS011;22054;51.646;7.078;2023-05-08T10:39:04;7.03;;;6.72;;
35612;SDS011;22054;51.646;7.078;2023-05-08T10:42:29;7.43;;;7.13;;
35612;SDS011;22054;51.646;7.078;2023-05-08T10:45:55;7.60;;;7.30;;
35612;SDS011;22054;51.646;7.078;2023-05-08T10:53:39;7.10;;;6.80;;
35612;SDS011;22054;51.646;7.078;2023-05-08T10:57:11;7.50;;;7.20;;
35612;SDS011;22054;51.646;7.078;2023-05-08T11:04:19;6.50;;;6.28;;
35612;SDS011;22054;51.646;7.078;2023-05-08T11:07:54;6.63;;;6.35;;
35612;SDS011;22054;51.646;7.078;2023-05-08T11:11:22;6.47;;;6.28;;
35612;SDS011;22054;51.646;7.078;2023-05-08T11:15:02;6.80;;;6.50;;
35612;SDS011;22054;51.646;7.078;2023-05-08T11:18:34;6.47;;;6.28;;
35612;SDS011;22054;51.646;7.078;2023-05-08T11:22:10;6.80;;;6.50;;
35612;SDS011;22054;51.646;7.078;2023-05-08T11:25:48;6.97;;;6.68;;
35612;SDS011;22054;51.646;7.078;2023-05-08T11:29:22;6.80;;;6.50;;
35612;SDS011;22054;51.646;7.078;2023-05-08T11:36:25;6.40;;;6.20;;
35612;SDS011;22054;51.646;7.078;2023-05-08T11:39:50;6.70;;;6.40;;
35612;SDS011;22054;51.646;7.078;2023-05-08T11:46:50;6.68;;;6.38;;
35612;SDS011;22054;51.646;7.078;2023-05-08T11:50:15;7.43;;;7.13;;
35612;SDS011;22054;51.646;7.078;2023-05-08T11:53:41;7.50;;;7.20;;
35612;SDS011;22054;51.646;7.078;2023-05-08T11:57:07;7.55;;;7.25;;
35612;SDS011;22054;51.646;7.078;2023-05-08T12:00:41;7.72;;;7.43;;
35612;SDS011;22054;51.646;7.078;2023-05-08T12:04:06;7.75;;;7.45;;
35612;SDS011;22054;51.646;7.078;2023-05-08T12:07:32;7.88;;;7.57;;
35612;SDS011;22054;51.646;7.078;2023-05-08T12:11:10;7.80;;;7.50;;
35612;SDS011;22054;51.646;7.078;2023-05-08T12:14:34;7.85;;;7.55;;
35612;SDS011;22054;51.646;7.078;2023-05-08T12:18:01;7.95;;;7.65;;
35612;SDS011;22054;51.646;7.078;2023-05-08T12:21:25;7.60;;;7.30;;
35612;SDS011;22054;51.646;7.078;2023-05-08T12:24:50;7.38;;;7.07;;
35612;SDS011;22054;51.646;7.078;2023-05-08T12:28:18;7.00;;;6.70;;
35612;SDS011;22054;51.646;7.078;2023-05-08T12:31:43;6.90;;;6.60;;
35612;SDS011;22054;51.646;7.078;2023-05-08T12:35:07;7.28;;;6.97;;
35612;SDS011;22054;51.646;7.078;2023-05-08T12:38:37;7.03;;;6.72;;
35612;SDS011;22054;51.646;7.078;2023-05-08T12:42:02;6.80;;;6.50;;
35612;SDS011;22054;51.646;7.078;2023-05-08T12:45:28;6.47;;;6.28;;
35612;SDS011;22054;51.646;7.078;2023-05-08T12:48:59;6.50;;;6.25;;
35612;SDS011;22054;51.646;7.078;2023-05-08T12:52:24;7.25;;;6.95;;
35612;SDS011;22054;51.646;7.078;2023-05-08T12:55:59;6.90;;;6.60;;
35612;SDS011;22054;51.646;7.078;2023-05-08T12:59:30;6.65;;;6.35;;
35612;SDS011;22054;51.646;7.078;2023-05-08T13:03:04;6.80;;;6.50;;
35612;SDS011;22054;51.646;7.078;2023-05-08T13:06:31;7.00;;;6.70;;
35612;SDS011;22054;51.646;7.078;2023-05-08T13:09:59;6.40;;;6.20;;
35612;SDS011;22054;51.646;7.078;2023-05-08T13:13:29;7.20;;;6.90;;
35612;SDS011;22054;51.646;7.078;2023-05-08T13:16:54;6.82;;;6.53;;
35612;SDS011;22054;51.646;7.078;2023-05-08T13:20:18;7.18;;;6.88;;
35612;SDS011;22054;51.646;7.078;2023-05-08T13:23:42;6.90;;;6.60;;
35612;SDS011;22054;51.646;7.078;2023-05-08T13:27:10;6.40;;;6.20;;
35612;SDS011;22054;51.646;7.078;2023-05-08T13:30:34;6.70;;;6.40;;
35612;SDS011;22054;51.646;7.078;2023-05-08T13:33:59;6.85;;;6.55;;
35612;SDS011;22054;51.646;7.078;2023-05-08T13:37:23;6.93;;;6.63;;
35612;SDS011;22054;51.646;7.078;2023-05-08T13:40:48;6.68;;;6.38;;
35612;SDS011;22054;51.646;7.078;2023-05-08T13:44:12;6.85;;;6.55;;
35612;SDS011;22054;51.646;7.078;2023-05-08T13:47:38;6.70;;;6.40;;
35612;SDS011;22054;51.646;7.078;2023-05-08T13:51:03;6.63;;;6.32;;
35612;SDS011;22054;51.646;7.078;2023-05-08T13:54:27;5.85;;;5.65;;
35612;SDS011;22054;51.646;7.078;2023-05-08T13:57:52;6.10;;;5.90;;
35612;SDS011;22054;51.646;7.078;2023-05-08T14:01:16;6.30;;;6.10;;
35612;SDS011;22054;51.646;7.078;2023-05-08T14:04:40;6.30;;;6.10;;
35612;SDS011;22054;51.646;7.078;2023-05-08T14:08:05;6.50;;;6.30;;
35612;SDS011;22054;51.646;7.078;2023-05-08T14:11:29;6.25;;;6.05;;
35612;SDS011;22054;51.646;7.078;2023-05-08T14:14:53;6.32;;;6.13;;
35612;SDS011;22054;51.646;7.078;2023-05-08T14:18:17;6.38;;;6.18;;
35612;SDS011;22054;51.646;7.078;2023-05-08T14:21:44;6.25;;;6.05;;
35612;SDS011;22054;51.646;7.078;2023-05-08T14:25:09;6.70;;;6.40;;
35612;SDS011;22054;51.646;7.078;2023-05-08T14:28:33;6.22;;;6.03;;
35612;SDS011;22054;51.646;7.078;2023-05-08T14:31:57;6.57;;;6.32;;
35612;SDS011;22054;51.646;7.078;2023-05-08T14:35:21;6.40;;;6.20;;
35612;SDS011;22054;51.646;7.078;2023-05-08T14:38:46;6.47;;;6.28;;
35612;SDS011;22054;51.646;7.078;2023-05-08T14:42:10;6.90;;;6.60;;
35612;SDS011;22054;51.646;7.078;2023-05-08T14:45:34;7.57;;;7.28;;
35612;SDS011;22054;51.646;7.078;2023-05-08T14:48:58;7.80;;;7.50;;
35612;SDS011;22054;51.646;7.078;2023-05-08T14:52:24;7.90;;;7.60;;
35612;SDS011;22054;51.646;7.078;2023-05-08T14:55:48;8.20;;;7.90;;
35612;SDS011;22054;51.646;7.078;2023-05-08T14:59:13;8.10;;;7.80;;
35612;SDS011;22054;51.646;7.078;2023-05-08T15:02:37;7.82;;;7.53;;
35612;SDS011;22054;51.646;7.078;2023-05-08T15:06:02;7.88;;;7.57;;
35612;SDS011;22054;51.646;7.078;2023-05-08T15:09:26;7.05;;;6.75;;
35612;SDS011;22054;51.646;7.078;2023-05-08T15:12:50;7.22;;;6.93;;
35612;SDS011;22054;51.646;7.078;2023-05-08T15:16:15;7.60;;;7.30;;
35612;SDS011;22054;51.646;7.078;2023-05-08T15:19:39;7.45;;;7.15;;
35612;SDS011;22054;51.646;7.078;2023-05-08T15:23:03;7.05;;;6.75;;
35612;SDS011;22054;51.646;7.078;2023-05-08T15:26:28;7.05;;;6.75;;
35612;SDS011;22054;51.646;7.078;2023-05-08T15:29:53;7.00;;;6.70;;
35612;SDS011;22054;51.646;7.078;2023-05-08T15:33:17;6.85;;;6.55;;
35612;SDS011;22054;51.646;7.078;2023-05-08T15:36:41;6.78;;;6.47;;
35612;SDS011;22054;51.646;7.078;2023-05-08T15:40:06;7.13;;;6.82;;
35612;SDS011;22054;51.646;7.078;2023-05-08T15:43:31;6.95;;;6.65;;
35612;SDS011;22054;51.646;7.078;2023-05-08T15:46:55;6.15;;;5.95;;
35612;SDS011;22054;51.646;7.078;2023-05-08T15:50:23;6.57;;;6.30;;
35612;SDS011;22054;51.646;7.078;2023-05-08T15:53:48;6.25;;;6.05;;
35612;SDS011;22054;51.646;7.078;2023-05-08T15:57:18;6.78;;;6.47;;
35612;SDS011;22054;51.646;7.078;2023-05-08T16:00:45;6.90;;;6.60;;
35612;SDS011;22054;51.646;7.078;2023-05-08T16:04:11;6.70;;;6.40;;
35612;SDS011;22054;51.646;7.078;2023-05-08T16:07:35;6.00;;;5.80;;
35612;SDS011;22054;51.646;7.078;2023-05-08T16:11:00;6.30;;;6.10;;
35612;SDS011;22054;51.646;7.078;2023-05-08T16:14:24;5.90;;;5.70;;
35612;SDS011;22054;51.646;7.078;2023-05-08T16:17:48;6.30;;;6.10;;
35612;SDS011;22054;51.646;7.078;2023-05-08T16:21:12;6.22;;;6.03;;
35612;SDS011;22054;51.646;7.078;2023-05-08T16:24:36;6.00;;;5.80;;
35612;SDS011;22054;51.646;7.078;2023-05-08T16:28:01;5.80;;;5.60;;
35612;SDS011;22054;51.646;7.078;2023-05-08T16:31:25;6.30;;;6.10;;
35612;SDS011;22054;51.646;7.078;2023-05-08T16:34:51;6.30;;;6.10;;
35612;SDS011;22054;51.646;7.078;2023-05-08T16:38:15;5.90;;;5.70;;
35612;SDS011;22054;51.646;7.078;2023-05-08T16:41:39;5.78;;;5.57;;
35612;SDS011;22054;51.646;7.078;2023-05-08T16:45:04;5.90;;;5.70;;
35612;SDS011;22054;51.646;7.078;2023-05-08T16:48:31;5.88;;;5.68;;
35612;SDS011;22054;51.646;7.078;2023-05-08T16:51:56;5.80;;;5.60;;
35612;SDS011;22054;51.646;7.078;2023-05-08T16:55:21;6.20;;;6.00;;
35612;SDS011;22054;51.646;7.078;2023-05-08T16:58:47;6.10;;;5.90;;
35612;SDS011;22054;51.646;7.078;2023-05-08T17:02:11;6.00;;;5.80;;
35612;SDS011;22054;51.646;7.078;2023-05-08T17:05:35;6.07;;;5.88;;
35612;SDS011;22054;51.646;7.078;2023-05-08T17:09:00;5.80;;;5.60;;
35612;SDS011;22054;51.646;7.078;2023-05-08T17:12:24;5.85;;;5.65;;
35612;SDS011;22054;51.646;7.078;2023-05-08T17:15:48;5.85;;;5.65;;
35612;SDS011;22054;51.646;7.078;2023-05-08T17:19:13;5.97;;;5.78;;
35612;SDS011;22054;51.646;7.078;2023-05-08T17:22:37;6.10;;;5.90;;
35612;SDS011;22054;51.646;7.078;2023-05-08T17:26:02;5.63;;;5.43;;
35612;SDS011;22054;51.646;7.078;2023-05-08T17:29:26;6.20;;;6.00;;
35612;SDS011;22054;51.646;7.078;2023-05-08T17:32:51;6.00;;;5.80;;
35612;SDS011;22054;51.646;7.078;2023-05-08T17:36:16;6.00;;;5.80;;
35612;SDS011;22054;51.646;7.078;2023-05-08T17:39:40;6.05;;;5.85;;
35612;SDS011;22054;51.646;7.078;2023-05-08T17:43:04;6.10;;;5.90;;
35612;SDS011;22054;51.646;7.078;2023-05-08T17:46:46;5.90;;;5.70;;
35612;SDS011;22054;51.646;7.078;2023-05-08T17:50:26;5.38;;;5.18;;
35612;SDS011;22054;51.646;7.078;2023-05-08T17:54:11;5.60;;;5.40;;
35612;SDS011;22054;51.646;7.078;2023-05-08T17:57:46;5.60;;;5.40;;
35612;SDS011;22054;51.646;7.078;2023-05-08T18:01:29;5.70;;;5.50;;
35612;SDS011;22054;51.646;7.078;2023-05-08T18:05:19;5.50;;;5.30;;
35612;SDS011;22054;51.646;7.078;2023-05-08T18:09:03;5.55;;;5.35;;
35612;SDS011;22054;51.646;7.078;2023-05-08T18:13:09;5.68;;;5.47;;
35612;SDS011;22054;51.646;7.078;2023-05-08T18:16:48;5.60;;;5.40;;
35612;SDS011;22054;51.646;7.078;2023-05-08T18:20:43;5.68;;;5.47;;
35612;SDS011;22054;51.646;7.078;2023-05-08T18:24:23;5.20;;;5.00;;
35612;SDS011;22054;51.646;7.078;2023-05-08T18:28:06;5.03;;;4.82;;
35612;SDS011;22054;51.646;7.078;2023-05-08T18:32:00;5.00;;;4.80;;
35612;SDS011;22054;51.646;7.078;2023-05-08T18:36:21;5.13;;;4.93;;
35612;SDS011;22054;51.646;7.078;2023-05-08T18:40:17;4.90;;;4.70;;
35612;SDS011;22054;51.646;7.078;2023-05-08T18:43:43;5.20;;;5.00;;
35612;SDS011;22054;51.646;7.078;2023-05-08T18:47:28;5.20;;;5.00;;
35612;SDS011;22054;51.646;7.078;2023-05-08T18:51:30;5.20;;;5.00;;
35612;SDS011;22054;51.646;7.078;2023-05-08T18:55:32;5.30;;;5.10;;
35612;SDS011;22054;51.646;7.078;2023-05-08T19:03:11;5.38;;;5.18;;
35612;SDS011;22054;51.646;7.078;2023-05-08T19:06:38;5.30;;;5.10;;
35612;SDS011;22054;51.646;7.078;2023-05-08T19:10:13;5.60;;;5.40;;
35612;SDS011;22054;51.646;7.078;2023-05-08T19:14:14;5.70;;;5.50;;
35612;SDS011;22054;51.646;7.078;2023-05-08T19:18:33;5.85;;;5.65;;
35612;SDS011;22054;51.646;7.078;2023-05-08T19:22:25;5.80;;;5.60;;
35612;SDS011;22054;51.646;7.078;2023-05-08T19:26:13;5.90;;;5.70;;
35612;SDS011;22054;51.646;7.078;2023-05-08T19:30:04;5.80;;;5.60;;
35612;SDS011;22054;51.646;7.078;2023-05-08T19:34:21;5.40;;;5.20;;
35612;SDS011;22054;51.646;7.078;2023-05-08T19:38:14;5.68;;;5.47;;
35612;SDS011;22054;51.646;7.078;2023-05-08T19:41:52;5.60;;;5.40;;
35612;SDS011;22054;51.646;7.078;2023-05-08T19:50:49;5.50;;;5.30;;
35612;SDS011;22054;51.646;7.078;2023-05-08T19:54:15;6.15;;;5.95;;
35612;SDS011;22054;51.646;7.078;2023-05-08T20:01:12;6.28;;;6.07;;
35612;SDS011;22054;51.646;7.078;2023-05-08T20:04:40;6.32;;;6.13;;
35612;SDS011;22054;51.646;7.078;2023-05-08T20:08:21;6.00;;;5.80;;
35612;SDS011;22054;51.646;7.078;2023-05-08T20:11:46;5.88;;;5.68;;
35612;SDS011;22054;51.646;7.078;2023-05-08T20:15:19;6.20;;;6.00;;
35612;SDS011;22054;51.646;7.078;2023-05-08T20:18:47;6.20;;;6.00;;
35612;SDS011;22054;51.646;7.078;2023-05-08T20:22:14;6.15;;;5.95;;
35612;SDS011;22054;51.646;7.078;2023-05-08T20:25:48;6.30;;;6.10;;
35612;SDS011;22054;51.646;7.078;2023-05-08T20:29:17;6.40;;;6.20;;
35612;SDS011;22054;51.646;7.078;2023-05-08T20:32:51;6.40;;;6.20;;
35612;SDS011;22054;51.646;7.078;2023-05-08T20:36:26;6.15;;;5.95;;
35612;SDS011;22054;51.646;7.078;2023-05-08T20:39:57;0.00;;;0.00;;
35612;SDS011;22054;51.646;7.078;2023-05-08T20:43:51;0.00;;;0.00;;
35612;SDS011;22054;51.646;7.078;2023-05-08T20:47:24;0.00;;;0.00;;
35612;SDS011;22054;51.646;7.078;2023-05-08T20:50:54;0.00;;;0.00;;
35612;SDS011;22054;51.646;7.078;2023-05-08T20:58:45;0.00;;;0.00;;
35612;SDS011;22054;51.646;7.078;2023-05-08T21:06:37;0.00;;;0.00;;
35612;SDS011;22054;51.646;7.078;2023-05-08T21:10:11;0.00;;;0.00;;
35612;SDS011;22054;51.646;7.078;2023-05-08T21:13:40;0.00;;;0.00;;
35612;SDS011;22054;51.646;7.078;2023-05-08T21:17:08;0.00;;;0.00;;
35612;SDS011;22054;51.646;7.078;2023-05-08T21:20:32;0.00;;;0.00;;
35612;SDS011;22054;51.646;7.078;2023-05-08T21:23:57;0.00;;;0.00;;
35612;SDS011;22054;51.646;7.078;2023-05-08T21:27:21;0.00;;;0.00;;
35612;SDS011;22054;51.646;7.078;2023-05-08T21:30:45;0.00;;;0.00;;
35612;SDS011;22054;51.646;7.078;2023-05-08T21:34:10;0.00;;;0.00;;
35612;SDS011;22054;51.646;7.078;2023-05-08T21:37:34;0.00;;;0.00;;
35612;SDS011;22054;51.646;7.078;2023-05-08T21:41:05;0.00;;;0.00;;
35612;SDS011;22054;51.646;7.078;2023-05-08T21:44:30;0.00;;;0.00;;
35612;SDS011;22054;51.646;7.078;2023-05-08T21:47:55;0.00;;;0.00;;
35612;SDS011;22054;51.646;7.078;2023-05-08T21:51:19;0.00;;;0.00;;
35612;SDS011;22054;51.646;7.078;2023-05-08T21:54:46;0.00;;;0.00;;
35612;SDS011;22054;51.646;7.078;2023-05-08T21:58:11;0.00;;;0.00;;
35612;SDS011;22054;51.646;7.078;2023-05-08T22:01:35;0.00;;;0.00;;
35612;SDS011;22054;51.646;7.078;2023-05-08T22:04:59;0.00;;;0.00;;
35612;SDS011;22054;51.646;7.078;2023-05-08T22:08:23;0.00;;;0.00;;
35612;SDS011;22054;51.646;7.078;2023-05-08T22:11:48;0.00;;;0.00;;
35612;SDS011;22054;51.646;7.078;2023-05-08T22:15:13;0.00;;;0.00;;
35612;SDS011;22054;51.646;7.078;2023-05-08T22:18:37;0.00;;;0.00;;